Elm Grove, Wisconsin
Current Conditions -  °F | °C
As of 8:45 AM on Saturday 20 Dec 2014 (Local Time) from KMWC Reporting Station
Overcast Overcast  
Wind Chill: 27°   Ceiling: 7500
Heat Index: 27°   Visibility: 7mi
Dew Point: 19°   Wind: 3mph
Humidity: 74%   Direction: 260°W
Pressure: 30.28"   Gusts: NA
Location:  43.05°N, 88.08°W
Report Text: KMWC 201445Z AUTO 26003KT 7SM OVC075 M03/M07 A3028
Loading
Personal Weather Stations






























Interactive Weather Map New forecast layout! Learn more

10-Day Weather Forecast

Advertisements
Track Severe Weather on mobile